Flight Track Log - Related Links

Times and Time Zones

All times are in EDT time to prevent confusion due to time zone crossing. See the DAL268 flight status page for this flight to view local times or setup timezone preferences in your user account.

Time Position Orientation Groundspeed Altitude Reporting Facility
EDT Latitude Longitude Course Direction KTS MPH feet Rate Location/Type
Mon 03:13:33 PM 37.6272 -122.3670 29° Northeast 167 192 400  Level FlightAware ADS-B
Mon 03:13:40 PM 37.6318 -122.3640 27° Northeast 168 193 700 2,571 Climbing FlightAware ADS-B
Mon 03:13:47 PM 37.6365 -122.3600 34° Northeast 170 196 1,000 2,571 Climbing FlightAware ADS-B
Mon 03:13:54 PM 37.6410 -122.3550 41° Northeast 176 203 1,300 2,000 Climbing FlightAware ADS-B
Mon 03:14:05 PM 37.6470 -122.3470 47° Northeast 185 213 1,600 2,308 Climbing FlightAware ADS-B
Mon 03:14:20 PM 37.6561 -122.3350 46° Northeast 185 213 2,300 2,222 Climbing FlightAware ADS-B
Mon 03:14:32 PM 37.6633 -122.3260 45° Northeast 187 215 2,600 1,714 Climbing FlightAware ADS-B
Mon 03:14:48 PM 37.6731 -122.3130 46° Northeast 192 221 3,100 1,588 Climbing FlightAware ADS-B
Mon 03:15:06 PM 37.6846 -122.2980 46° Northeast 200 230 3,500 1,421 Climbing FlightAware ADS-B
Mon 03:15:26 PM 37.6981 -122.2810 45° Northeast 215 247 4,000 1,200 Climbing FlightAware ADS-B
Mon 03:15:41 PM 37.7095 -122.2670 44° Northeast 228 262 4,200 1,235 Climbing FlightAware ADS-B
Mon 03:16:00 PM 37.7251 -122.2480 44° Northeast 245 282 4,700 1,467 Climbing FlightAware ADS-B
Mon 03:16:26 PM 37.7487 -122.2200 43° Northeast 270 311 5,300 1,787 Climbing FlightAware ADS-B
Mon 03:16:47 PM 37.7696 -122.2000 37° Northeast 279 321 6,100 2,432 Climbing FlightAware ADS-B
Mon 03:17:03 PM 37.7868 -122.1830 38° Northeast 283 326 6,800 2,308 Climbing FlightAware ADS-B
Mon 03:17:13 PM 37.7976 -122.1730 36° Northeast 289 333 7,100 2,000 Climbing FlightAware ADS-B
Mon 03:17:30 PM 37.8150 -122.1570 36° Northeast 292 336 7,700 2,182 Climbing FlightAware ADS-B
Mon 03:17:46 PM 37.8332 -122.1390 38° Northeast 297 342 8,300 2,063 Climbing FlightAware ADS-B
Mon 03:18:02 PM 37.8509 -122.1230 36° Northeast 305 351 8,800 1,935 Climbing FlightAware ADS-B
Mon 03:18:17 PM 37.8682 -122.1060 38° Northeast 307 353 9,300 1,935 Climbing FlightAware ADS-B
Mon 03:18:33 PM 37.8861 -122.0890 37° Northeast 314 361 9,800 1,875 Climbing FlightAware ADS-B
Mon 03:19:05 PM 37.9243 -122.0520 37° Northeast 328 377 10,800 1,333 Climbing FlightAware ADS-B
Mon 03:19:36 PM 37.9640 -122.0140 37° Northeast 356 410 11,200 1,015 Climbing FlightAware ADS-B
Mon 03:20:10 PM 38.0112 -121.9690 37° Northeast 377 434 11,900 1,164 Climbing FlightAware ADS-B
Mon 03:20:43 PM 38.0585 -121.9240 37° Northeast 392 451 12,500 1,477 Climbing FlightAware ADS-B
Mon 03:21:15 PM 38.1050 -121.8790 37° Northeast 414 476 13,500 1,881 Climbing FlightAware ADS-B
Mon 03:21:50 PM 38.1622 -121.8240 37° Northeast 392 451 14,600 1,852 Climbing FlightAware ADS-B
Mon 03:22:36 PM 38.2310 -121.7570 37° Northeast 434 499 16,000 1,867 Climbing FlightAware ADS-B
Mon 03:23:20 PM 38.3030 -121.6870 37° Northeast 441 507 17,400 1,886 Climbing FlightAware ADS-B
Mon 03:23:46 PM 38.3473 -121.6450 37° Northeast 437 503 18,200 1,556 Climbing FlightAware ADS-B
Mon 03:24:41 PM 38.4370 -121.5540 38° Northeast 456 525 19,500 1,576 Climbing FlightAware ADS-B
Mon 03:25:25 PM 38.4960 -121.4630 50° Northeast 455 524 20,800 1,636 Climbing FlightAware ADS-B
Mon 03:26:09 PM 38.5520 -121.3670 53° Northeast 462 532 21,900 1,395 Climbing FlightAware ADS-B
Mon 03:26:51 PM 38.5920 -121.2660 63° Northeast 464 534 22,800 1,429 Climbing FlightAware ADS-B
Mon 03:27:33 PM 38.6300 -121.1600 65° Northeast 468 539 23,900 1,417 Climbing FlightAware ADS-B
Mon 03:28:03 PM 38.6590 -121.0880 63° Northeast 477 549 24,500 1,258 Climbing FlightAware ADS-B
Mon 03:28:35 PM 38.7025 -121.0140 53° Northeast 479 551 25,200 1,295 Climbing FlightAware ADS-B
Mon 03:29:31 PM 38.7760 -120.8850 54° Northeast 487 560 26,400 1,227 Climbing FlightAware ADS-B
Mon 03:30:03 PM 38.8180 -120.8090 55° Northeast 491 565 27,000 1,105 Climbing FlightAware ADS-B
Mon 03:30:47 PM 38.8810 -120.7060 52° Northeast 498 573 27,800 1,286 Climbing FlightAware ADS-B
Mon 03:31:27 PM 38.9360 -120.6170 52° Northeast 494 568 28,800 1,537 Climbing FlightAware ADS-B
Mon 03:32:09 PM 38.9950 -120.5200 52° Northeast 490 564 29,900 1,432 Climbing FlightAware ADS-B
Mon 03:32:55 PM 39.0580 -120.4130 53° Northeast 490 564 30,900 1,244 Climbing FlightAware ADS-B
Mon 03:33:31 PM 39.1080 -120.3300 52° Northeast 491 565 31,600 1,059 Climbing FlightAware ADS-B
Mon 03:34:20 PM 39.1760 -120.2150 53° Northeast 494 568 32,400 1,098 Climbing FlightAware ADS-B
Mon 03:34:53 PM 39.2210 -120.1400 52° Northeast 493 567 33,100 1,297 Climbing FlightAware ADS-B
Mon 03:35:34 PM 39.2790 -120.0410 53° Northeast 490 564 34,000 1,317 Climbing FlightAware ADS-B
Mon 03:36:15 PM 39.3340 -119.9480 53° Northeast 482 555 34,900 759 Climbing FlightAware ADS-B
Mon 03:36:53 PM 39.3860 -119.8610 52° Northeast 479 551 35,000 77 Climbing FlightAware ADS-B
Mon 03:37:33 PM 39.4390 -119.7700 53° Northeast 477 549 35,000  Level FlightAware ADS-B
Mon 03:38:15 PM 39.4950 -119.6740 53° Northeast 483 556 35,000  Level FlightAware ADS-B
Mon 03:38:53 PM 39.5470 -119.5850 53° Northeast 488 562 35,000  Level FlightAware ADS-B
Mon 03:39:32 PM 39.6000 -119.4940 53° Northeast 490 564 35,000  Level FlightAware ADS-B
Mon 03:40:15 PM 39.6580 -119.3940 53° Northeast 490 564 35,000  Level FlightAware ADS-B
Mon 03:40:57 PM 39.7160 -119.2930 53° Northeast 488 562 35,000  Level FlightAware ADS-B
Mon 03:41:37 PM 39.7690 -119.2020 53° Northeast 486 559 35,000  Level FlightAware ADS-B
Mon 03:42:19 PM 39.8270 -119.1020 53° Northeast 483 556 35,000  Level FlightAware ADS-B
Mon 03:43:03 PM 39.8830 -119.0040 53° Northeast 481 554 35,000  Level FlightAware ADS-B
Mon 03:43:41 PM 39.9350 -118.9120 54° Northeast 478 550 35,000  Level FlightAware ADS-B
Mon 03:44:21 PM 39.9870 -118.8220 53° Northeast 476 548 35,000  Level FlightAware ADS-B
Mon 03:45:03 PM 40.0420 -118.7250 53° Northeast 476 548 35,000  Level FlightAware ADS-B
Mon 03:45:43 PM 40.0930 -118.6340 54° Northeast 474 545 35,000  Level FlightAware ADS-B
Mon 03:46:21 PM 40.1360 -118.5380 60° Northeast 475 547 35,000  Level FlightAware ADS-B
Mon 03:46:55 PM 40.1630 -118.4460 69° East 474 545 35,000  Level FlightAware ADS-B
Mon 03:47:33 PM 40.1900 -118.3440 71° East 473 544 35,000  Level FlightAware ADS-B
Mon 03:48:32 PM 40.2300 -118.1980 70° East 472 543 35,000  Level FlightAware ADS-B
Mon 03:49:09 PM 40.2560 -118.1010 71° East 472 543 35,000  Level FlightAware ADS-B
Mon 03:49:49 PM 40.2860 -117.9900 70° East 472 543 35,000  Level FlightAware ADS-B
Mon 03:50:23 PM 40.3080 -117.9120 70° East 472 543 35,000  Level FlightAware ADS-B
Mon 03:50:59 PM 40.3310 -117.8300 70° East 472 543 35,000  Level FlightAware ADS-B
Mon 03:51:48 PM 40.3620 -117.7180 70° East 472 543 35,000  Level FlightAware ADS-B
Mon 03:52:24 PM 40.3850 -117.6350 70° East 472 543 35,000  Level FlightAware ADS-B
Mon 03:53:11 PM 40.4150 -117.5270 70° East 472 543 35,000  Level FlightAware ADS-B
Mon 03:53:57 PM 40.4440 -117.4220 70° East 472 543 35,000  Level FlightAware ADS-B
Mon 03:54:35 PM 40.4680 -117.3350 70° East 472 543 35,000  Level FlightAware ADS-B
Mon 03:55:12 PM 40.4910 -117.2500 70° East 472 543 35,000  Level FlightAware ADS-B
Mon 03:56:01 PM 40.5220 -117.1380 70° East 472 543 35,000  Level FlightAware ADS-B
Mon 03:56:37 PM 40.5450 -117.0550 70° East 472 543 35,000  Level FlightAware ADS-B
Mon 03:57:25 PM 40.5760 -116.9450 70° East 472 543 35,000  Level FlightAware ADS-B
Mon 03:58:02 PM 40.5990 -116.8600 70° East 472 543 35,000  Level FlightAware ADS-B
Mon 03:58:51 PM 40.6300 -116.7470 70° East 472 543 35,000  Level FlightAware ADS-B
Mon 04:01:01 PM 40.7710 -116.1750 72° East 469 540 35,000  Level FlightAware ADS-B
Mon 04:01:39 PM 40.7982 -116.0720 71° East 469 540 35,000  Level FlightAware ADS-B
Mon 04:02:10 PM 40.8208 -115.9870 71° East 470 541 35,000  Level FlightAware ADS-B
Mon 04:02:41 PM 40.8428 -115.9030 71° East 470 541 35,000  Level FlightAware ADS-B
Mon 04:03:11 PM 40.8641 -115.8220 71° East 469 540 35,000  Level FlightAware ADS-B
Mon 04:04:26 PM 40.9167 -115.6210 71° East 468 539 35,000  Level FlightAware ADS-B
Mon 04:05:11 PM 40.9485 -115.4980 71° East 468 539 35,000  Level FlightAware ADS-B
Mon 04:05:58 PM 40.9813 -115.3710 71° East 468 539 35,000  Level FlightAware ADS-B
Mon 04:06:29 PM 41.0027 -115.2880 71° East 467 537 35,000  Level FlightAware ADS-B
Mon 04:06:59 PM 41.0236 -115.2060 71° East 465 535 35,000  Level FlightAware ADS-B
Mon 04:07:30 PM 41.0444 -115.1250 71° East 465 535 35,000  Level FlightAware ADS-B
Mon 04:08:00 PM 41.0651 -115.0430 71° East 465 535 35,000  Level FlightAware ADS-B
Mon 04:08:31 PM 41.0864 -114.9590 71° East 465 535 35,000  Level FlightAware ADS-B
Mon 04:09:01 PM 41.1071 -114.8770 71° East 465 535 35,000  Level FlightAware ADS-B
Mon 04:09:33 PM 41.1281 -114.7940 71° East 465 535 35,000  Level FlightAware ADS-B
Mon 04:10:17 PM 41.1585 -114.6730 72° East 465 535 35,000  Level FlightAware ADS-B
Mon 04:10:50 PM 41.1808 -114.5840 72° East 465 535 35,000  Level FlightAware ADS-B
Mon 04:11:23 PM 41.2026 -114.4960 72° East 466 536 35,000  Level FlightAware ADS-B
Mon 04:11:56 PM 41.2248 -114.4060 72° East 467 537 35,000  Level FlightAware ADS-B
Mon 04:12:26 PM 41.2452 -114.3230 72° East 468 539 35,000  Level FlightAware ADS-B
Mon 04:12:56 PM 41.2656 -114.2400 72° East 468 539 35,000 76 Level FlightAware ADS-B
Mon 04:13:45 PM 41.2981 -114.1080 72° East 469 540 35,100 225 Climbing FlightAware ADS-B
Mon 04:14:16 PM 41.3183 -114.0250 72° East 466 536 35,300 492 Climbing FlightAware ADS-B
Mon 04:14:46 PM 41.3383 -113.9430 72° East 467 537 35,600 600 Climbing FlightAware ADS-B
Mon 04:15:06 PM 41.3516 -113.8870 72° East 470 541 35,800 511 Climbing FlightAware ADS-B
Mon 04:15:33 PM 41.3659 -113.8120 76° East 472 543 36,000 421 Climbing FlightAware ADS-B
Mon 04:16:03 PM 41.3782 -113.7250 79° East 475 547 36,200 492 Climbing FlightAware ADS-B
Mon 04:16:34 PM 41.3897 -113.6360 80° East 477 549 36,500 537 Climbing FlightAware ADS-B
Mon 04:17:10 PM 41.4025 -113.5340 80° East 476 548 36,800 455 Climbing FlightAware ADS-B
Mon 04:17:40 PM 41.4137 -113.4460 80° East 476 548 37,000 179 Climbing FlightAware ADS-B
Mon 04:18:17 PM 41.4269 -113.3410 80° East 474 545 37,000  Level FlightAware ADS-B
Mon 04:18:47 PM 41.4379 -113.2530 81° East 471 542 37,000  Level FlightAware ADS-B
Mon 04:19:37 PM 41.4552 -113.1140 81° East 466 536 37,000  Level FlightAware ADS-B
Mon 04:20:07 PM 41.4659 -113.0270 81° East 463 533 37,000  Level FlightAware ADS-B
Mon 04:20:38 PM 41.4766 -112.9400 81° East 461 531 37,000  Level FlightAware ADS-B
Mon 04:21:09 PM 41.4868 -112.8560 81° East 460 529 37,000  Level FlightAware ADS-B
Mon 04:21:42 PM 41.4979 -112.7640 81° East 459 528 37,000  Level FlightAware ADS-B
Mon 04:22:12 PM 41.5081 -112.6790 81° East 458 527 37,000  Level FlightAware ADS-B
Mon 04:22:46 PM 41.5193 -112.5850 81° East 457 526 37,000  Level FlightAware ADS-B
Mon 04:23:17 PM 41.5295 -112.4990 81° East 457 526 37,000  Level FlightAware ADS-B
Mon 04:24:16 PM 41.5470 -112.3360 82° East 458 527 37,000  Level FlightAware ADS-B
Mon 04:24:37 PM 41.5531 -112.2770 82° East 458 527 37,000  Level FlightAware ADS-B
Mon 04:25:08 PM 41.5621 -112.1910 82° East 458 527 37,000  Level FlightAware ADS-B
Mon 04:25:39 PM 41.5711 -112.1030 82° East 460 529 37,000  Level FlightAware ADS-B
Mon 04:26:11 PM 41.5805 -112.0130 82° East 460 529 37,000  Level FlightAware ADS-B
Mon 04:26:41 PM 41.5893 -111.9280 82° East 460 529 37,000  Level FlightAware ADS-B
Mon 04:27:12 PM 41.5980 -111.8420 82° East 461 531 37,000  Level FlightAware ADS-B
Mon 04:27:48 PM 41.6083 -111.7400 82° East 462 532 37,000  Level FlightAware ADS-B
Mon 04:28:18 PM 41.6169 -111.6540 82° East 464 534 37,000  Level FlightAware ADS-B
Mon 04:28:49 PM 41.6255 -111.5670 82° East 464 534 37,000  Level FlightAware ADS-B
Mon 04:29:19 PM 41.6339 -111.4810 83° East 466 536 37,000  Level FlightAware ADS-B
Mon 04:29:49 PM 41.6423 -111.3950 83° East 467 537 37,000  Level FlightAware ADS-B
Mon 04:30:24 PM 41.6519 -111.2960 83° East 467 537 37,000  Level FlightAware ADS-B
Mon 04:30:55 PM 41.6602 -111.2090 83° East 468 539 37,000  Level FlightAware ADS-B
Mon 04:31:25 PM 41.6684 -111.1230 83° East 468 539 37,000  Level FlightAware ADS-B
Mon 04:31:59 PM 41.6778 -111.0240 83° East 469 540 37,000  Level FlightAware ADS-B
Mon 04:32:30 PM 41.6860 -110.9350 83° East 468 539 37,000  Level FlightAware ADS-B
Mon 04:33:02 PM 41.6946 -110.8430 83° East 467 537 37,000  Level FlightAware ADS-B
Mon 04:33:54 PM 41.7081 -110.6950 83° East 468 539 37,000  Level FlightAware ADS-B
Mon 04:35:02 PM 41.7225 -110.5272 83° East 465 535 37,000  Level Salt Lake Center
Mon 04:36:04 PM 41.7400 -110.3339 83° East 468 539 37,000  Level Salt Lake Center
Mon 04:37:06 PM 41.7544 -110.1706 83° East 463 533 37,000  Level Salt Lake Center
Mon 04:38:08 PM 41.7706 -109.9783 84° East 464 534 37,000  Level Salt Lake Center
Mon 04:39:09 PM 41.7847 -109.8136 83° East 465 535 37,000  Level Salt Lake Center
Mon 04:40:11 PM 41.7989 -109.6486 83° East 465 535 37,000  Level Salt Lake Center
Mon 04:41:13 PM 41.8156 -109.4572 83° East 462 532 37,000  Level Salt Lake Center
Mon 04:43:16 PM 41.8433 -109.1003 84° East 461 531 37,000  Level Salt Lake Center
Mon 04:44:18 PM 41.8556 -108.9367 84° East 458 527 37,000  Level Salt Lake Center
Mon 04:45:20 PM 41.8675 -108.7736 84° East 458 527 37,000  Level Salt Lake Center
Mon 04:46:21 PM 41.8817 -108.5842 84° East 457 526 37,000  Level Salt Lake Center
Mon 04:47:23 PM 41.8942 -108.4222 84° East 456 525 37,000  Level Salt Lake Center
Mon 04:48:25 PM 41.9072 -108.2319 85° East 458 527 37,000  Level Salt Lake Center
Mon 04:49:26 PM 41.9167 -108.0692 85° East 457 526 37,000  Level Salt Lake Center
Mon 04:50:28 PM 41.9281 -107.9078 85° East 454 522 37,000  Level Salt Lake Center
Mon 04:51:30 PM 41.9414 -107.7183 85° East 456 525 37,000  Level Salt Lake Center
Mon 04:52:31 PM 41.9519 -107.5561 85° East 456 525 37,000  Level Salt Lake Center
Mon 04:53:33 PM 41.9631 -107.3661 85° East 457 526 37,000  Level Salt Lake Center
Mon 04:59:18 PM 42.0170 -106.3850 85° East 456 525 37,000  Level FlightAware ADS-B
Mon 04:59:58 PM 42.0230 -106.2690 86° East 457 526 37,000  Level FlightAware ADS-B
Mon 05:00:42 PM 42.0290 -106.1490 86° East 457 526 37,000  Level FlightAware ADS-B
Mon 05:01:15 PM 42.0340 -106.0580 86° East 455 524 37,000  Level FlightAware ADS-B
Mon 05:02:03 PM 42.0410 -105.9180 86° East 453 521 37,000  Level FlightAware ADS-B
Mon 05:02:39 PM 42.0460 -105.8180 86° East 452 520 37,000  Level FlightAware ADS-B
Mon 05:03:18 PM 42.0500 -105.7240 87° East 452 520 37,000  Level FlightAware ADS-B
Mon 05:03:55 PM 42.0550 -105.6360 86° East 452 520 37,000  Level FlightAware ADS-B
Mon 05:04:44 PM 42.0610 -105.5190 86° East 452 520 37,000  Level FlightAware ADS-B
Mon 05:05:19 PM 42.0660 -105.3690 87° East 451 519 37,000  Level FlightAware ADS-B
Mon 05:06:01 PM 42.0710 -105.2500 87° East 452 520 37,000  Level FlightAware ADS-B
Mon 05:06:28 PM 42.0748 -105.1750 86° East 450 518 37,000  Level FlightAware ADS-B
Mon 05:06:59 PM 42.0812 -105.0890 84° East 448 516 37,000  Level FlightAware ADS-B
Mon 05:07:30 PM 42.0885 -105.0060 83° East 447 514 37,000  Level FlightAware ADS-B
Mon 05:08:00 PM 42.0960 -104.9210 83° East 447 514 37,000  Level FlightAware ADS-B
Mon 05:08:30 PM 42.1034 -104.8380 83° East 447 514 37,000  Level FlightAware ADS-B
Mon 05:09:01 PM 42.1106 -104.7540 83° East 446 513 37,000  Level FlightAware ADS-B
Mon 05:09:32 PM 42.1180 -104.6690 83° East 447 514 37,000  Level FlightAware ADS-B
Mon 05:10:02 PM 42.1252 -104.5850 83° East 448 516 37,000  Level FlightAware ADS-B
Mon 05:10:33 PM 42.1323 -104.5010 83° East 449 517 37,000  Level FlightAware ADS-B
Mon 05:11:07 PM 42.1402 -104.4050 84° East 449 517 37,000  Level FlightAware ADS-B
Mon 05:11:37 PM 42.1471 -104.3220 84° East 448 516 37,000  Level FlightAware ADS-B
Mon 05:12:08 PM 42.1540 -104.2370 84° East 449 517 37,000  Level FlightAware ADS-B
Mon 05:12:38 PM 42.1609 -104.1530 84° East 449 517 37,000  Level FlightAware ADS-B
Mon 05:13:09 PM 42.1677 -104.0690 84° East 449 517 37,000  Level FlightAware ADS-B
Mon 05:13:39 PM 42.1743 -103.9860 84° East 448 516 37,000  Level FlightAware ADS-B
Mon 05:14:09 PM 42.1810 -103.9010 84° East 447 514 37,000  Level FlightAware ADS-B
Mon 05:14:40 PM 42.1876 -103.8160 84° East 447 514 37,000  Level FlightAware ADS-B
Mon 05:15:11 PM 42.1942 -103.7310 84° East 447 514 37,000  Level FlightAware ADS-B
Mon 05:15:41 PM 42.2008 -103.6460 84° East 448 516 37,000  Level FlightAware ADS-B
Mon 05:16:12 PM 42.2072 -103.5610 84° East 448 516 37,000  Level FlightAware ADS-B
Mon 05:16:42 PM 42.2134 -103.4780 84° East 448 516 37,000  Level FlightAware ADS-B
Mon 05:17:12 PM 42.2197 -103.3940 84° East 448 516 37,000  Level FlightAware ADS-B
Mon 05:17:43 PM 42.2259 -103.3100 84° East 449 517 37,000  Level FlightAware ADS-B
Mon 05:18:21 PM 42.2336 -103.2030 84° East 449 517 37,000  Level FlightAware ADS-B
Mon 05:18:52 PM 42.2398 -103.1170 84° East 450 518 37,000  Level FlightAware ADS-B
Mon 05:19:27 PM 42.2469 -103.0180 84° East 450 518 37,000  Level FlightAware ADS-B
Mon 05:20:02 PM 42.2536 -102.9220 85° East 450 518 37,000  Level FlightAware ADS-B
Mon 05:20:54 PM 42.2630 -102.7920 84° East 449 517 37,000  Level FlightAware ADS-B
Mon 05:21:21 PM 42.2689 -102.7010 85° East 450 518 37,000  Level FlightAware ADS-B
Mon 05:22:17 PM 42.2794 -102.5450 85° East 450 518 37,000  Level FlightAware ADS-B
Mon 05:22:47 PM 42.2849 -102.4610 85° East 449 517 37,000  Level FlightAware ADS-B
Mon 05:23:20 PM 42.2909 -102.3690 85° East 450 518 37,000  Level FlightAware ADS-B
Mon 05:25:13 PM 42.3109 -102.0550 85° East 450 518 37,000  Level FlightAware ADS-B
Mon 05:25:53 PM 42.3172 -101.9586 85° East 449 517 37,000  Level Denver Center
Mon 05:26:55 PM 42.3292 -101.7767 85° East 449 517 37,000  Level Denver Center
Mon 05:27:57 PM 42.3375 -101.6178 86° East 444 511 37,000  Level Denver Center
Mon 05:28:59 PM 42.3489 -101.4314 85° East 445 512 37,000  Level Denver Center
Mon 05:30:01 PM 42.3575 -101.2719 86° East 444 511 37,000  Level Denver Center
Mon 05:31:03 PM 42.3656 -101.1125 86° East 444 511 37,000  Level Denver Center
Mon 05:32:17 PM 42.3753 -100.9253 86° East 447 514 37,000  Level Denver Center
Mon 05:38:35 PM 42.4284 -99.8105 86° East 456 525 37,000  Level FlightAware ADS-B
Mon 05:39:05 PM 42.4319 -99.7243 87° East 457 526 37,000  Level FlightAware ADS-B
Mon 05:39:36 PM 42.4355 -99.6379 87° East 458 527 37,000  Level FlightAware ADS-B
Mon 05:40:06 PM 42.4389 -99.5525 87° East 457 526 37,000  Level FlightAware ADS-B
Mon 05:40:37 PM 42.4425 -99.4633 87° East 456 525 37,000  Level FlightAware ADS-B
Mon 05:41:07 PM 42.4459 -99.3772 87° East 456 525 37,000  Level FlightAware ADS-B
Mon 05:41:37 PM 42.4492 -99.2918 87° East 455 524 37,000  Level FlightAware ADS-B
Mon 05:42:08 PM 42.4524 -99.2049 87° East 454 522 37,000  Level FlightAware ADS-B
Mon 05:42:40 PM 42.4557 -99.1159 87° East 454 522 37,000  Level FlightAware ADS-B
Mon 05:43:18 PM 42.4596 -99.0072 87° East 454 522 37,000  Level FlightAware ADS-B
Mon 05:43:48 PM 42.4626 -98.9217 87° East 452 520 37,000  Level FlightAware ADS-B
Mon 05:44:19 PM 42.4655 -98.8363 87° East 452 520 37,000  Level FlightAware ADS-B
Mon 05:44:49 PM 42.4683 -98.7511 87° East 452 520 37,000  Level FlightAware ADS-B
Mon 05:45:22 PM 42.4715 -98.6582 87° East 452 520 37,000  Level FlightAware ADS-B
Mon 05:45:57 PM 42.4767 -98.5588 86° East 450 518 37,000  Level FlightAware ADS-B
Mon 05:46:50 PM 42.4845 -98.4105 86° East 450 518 37,000  Level FlightAware ADS-B
Mon 05:47:23 PM 42.4890 -98.3179 86° East 450 518 37,000  Level FlightAware ADS-B
Mon 05:47:54 PM 42.4930 -98.2332 86° East 450 518 37,000  Level FlightAware ADS-B
Mon 05:48:24 PM 42.4969 -98.1486 86° East 450 518 37,000  Level FlightAware ADS-B
Mon 05:48:54 PM 42.5008 -98.0623 86° East 449 517 37,000  Level FlightAware ADS-B
Mon 05:49:25 PM 42.5046 -97.9773 87° East 449 517 37,000  Level FlightAware ADS-B
Mon 05:49:56 PM 42.5085 -97.8907 86° East 448 516 37,000  Level FlightAware ADS-B
Mon 05:50:26 PM 42.5122 -97.8069 87° East 448 516 37,000  Level FlightAware ADS-B
Mon 05:51:05 PM 42.5169 -97.6981 87° East 446 513 37,000  Level FlightAware ADS-B
Mon 05:51:36 PM 42.5205 -97.6126 87° East 445 512 37,000  Level FlightAware ADS-B
Mon 05:52:06 PM 42.5241 -97.5286 87° East 444 511 37,000  Level FlightAware ADS-B
Mon 05:52:36 PM 42.5274 -97.4452 87° East 444 511 37,000  Level FlightAware ADS-B
Mon 05:53:06 PM 42.5307 -97.3626 87° East 443 510 37,000  Level FlightAware ADS-B
Mon 05:53:36 PM 42.5340 -97.2791 87° East 443 510 37,000  Level FlightAware ADS-B
Mon 05:54:06 PM 42.5372 -97.1958 87° East 442 509 37,000  Level FlightAware ADS-B
Mon 05:54:37 PM 42.5403 -97.1125 87° East 442 509 37,000  Level FlightAware ADS-B
Mon 05:55:22 PM 42.5450 -96.9874 87° East 443 510 37,000  Level FlightAware ADS-B
Mon 05:55:53 PM 42.5481 -96.9017 87° East 446 513 37,000  Level FlightAware ADS-B
Mon 05:56:23 PM 42.5511 -96.8160 87° East 447 514 37,000  Level FlightAware ADS-B
Mon 05:56:54 PM 42.5540 -96.7316 87° East 450 518 37,000  Level FlightAware ADS-B
Mon 05:57:24 PM 42.5568 -96.6465 87° East 451 519 37,000  Level FlightAware ADS-B
Mon 05:58:14 PM 42.5606 -96.5312 87° East 452 520 37,000  Level FlightAware ADS-B
Mon 05:58:45 PM 42.5642 -96.4173 88° East 455 524 37,000  Level FlightAware ADS-B
Mon 05:59:28 PM 42.5680 -96.2951 88° East 456 525 37,000  Level FlightAware ADS-B
Mon 05:59:58 PM 42.5706 -96.2092 88° East 457 526 37,000  Level FlightAware ADS-B
Mon 06:00:29 PM 42.5732 -96.1208 88° East 458 527 37,000  Level FlightAware ADS-B
Mon 06:01:00 PM 42.5756 -96.0319 88° East 459 528 37,000  Level FlightAware ADS-B
Mon 06:01:30 PM 42.5781 -95.9451 88° East 460 529 37,000 200 Level FlightAware ADS-B
Mon 06:02:00 PM 42.5804 -95.8583 88° East 459 528 37,200 700 Climbing FlightAware ADS-B
Mon 06:02:30 PM 42.5827 -95.7724 88° East 457 526 37,700 900 Climbing FlightAware ADS-B
Mon 06:03:00 PM 42.5850 -95.6852 88° East 460 529 38,100 800 Climbing FlightAware ADS-B
Mon 06:03:30 PM 42.5870 -95.5990 88° East 459 528 38,500 900 Climbing FlightAware ADS-B
Mon 06:04:00 PM 42.5890 -95.5131 88° East 454 522 39,000 484 Climbing FlightAware ADS-B
Mon 06:04:32 PM 42.5910 -95.4253 88° East 447 514 39,000  Level FlightAware ADS-B
Mon 06:05:02 PM 42.5929 -95.3405 88° East 447 514 39,000  Level FlightAware ADS-B
Mon 06:05:35 PM 42.5950 -95.2472 88° East 450 518 39,000  Level FlightAware ADS-B
Mon 06:06:06 PM 42.5968 -95.1615 88° East 453 521 39,000  Level FlightAware ADS-B
Mon 06:06:39 PM 42.5986 -95.0663 88° East 456 525 39,000  Level FlightAware ADS-B
Mon 06:07:09 PM 42.6003 -94.9799 88° East 458 527 39,000  Level FlightAware ADS-B
Mon 06:07:39 PM 42.6019 -94.8933 89° East 459 528 39,000  Level FlightAware ADS-B
Mon 06:08:10 PM 42.6034 -94.8070 89° East 459 528 39,000  Level FlightAware ADS-B
Mon 06:11:25 PM 42.6120 -94.2510 89° East 455 524 39,000  Level FlightAware ADS-B
Mon 06:12:03 PM 42.6130 -94.1410 89° East 453 521 39,000  Level FlightAware ADS-B
Mon 06:12:41 PM 42.6130 -94.0360 90° East 452 520 39,000  Level FlightAware ADS-B
Mon 06:13:18 PM 42.6140 -93.9310 89° East 452 520 39,000  Level FlightAware ADS-B
Mon 06:14:05 PM 42.6150 -93.7980 89° East 452 520 39,000  Level FlightAware ADS-B
Mon 06:14:41 PM 42.6160 -93.6950 89° East 450 518 39,000  Level FlightAware ADS-B
Mon 06:15:23 PM 42.6160 -93.5750 90° East 448 516 39,000  Level FlightAware ADS-B
Mon 06:15:47 PM 42.6160 -93.5070 90° East 447 514 39,000  Level FlightAware ADS-B
Mon 06:16:29 PM 42.6160 -93.3930 90° East 445 512 39,000  Level FlightAware ADS-B
Mon 06:17:15 PM 42.6170 -93.2620 89° East 449 517 39,000  Level FlightAware ADS-B
Mon 06:17:55 PM 42.6170 -93.1510 90° East 450 518 39,000  Level FlightAware ADS-B
Mon 06:18:35 PM 42.6170 -93.0370 90° East 450 518 39,000  Level FlightAware ADS-B
Mon 06:19:19 PM 42.6160 -92.9130 91° East 450 518 39,000  Level FlightAware ADS-B
Mon 06:20:01 PM 42.6160 -92.7960 90° East 450 518 39,000  Level FlightAware ADS-B
Mon 06:20:41 PM 42.6160 -92.6830 90° East 449 517 39,000  Level FlightAware ADS-B
Mon 06:21:27 PM 42.6150 -92.5540 91° East 448 516 39,000  Level FlightAware ADS-B
Mon 06:22:00 PM 42.6150 -92.4680 90° East 448 516 39,000  Level FlightAware ADS-B
Mon 06:22:41 PM 42.6140 -92.3500 91° East 447 514 39,000  Level FlightAware ADS-B
Mon 06:23:31 PM 42.6130 -92.2070 90° East 447 514 39,000  Level FlightAware ADS-B
Mon 06:24:08 PM 42.6120 -92.1040 91° East 453 521 39,000  Level FlightAware ADS-B
Mon 06:24:48 PM 42.6110 -91.9880 91° East 460 529 39,000  Level FlightAware ADS-B
Mon 06:25:29 PM 42.6090 -91.8690 91° East 465 535 39,000  Level FlightAware ADS-B
Mon 06:26:12 PM 42.6080 -91.7480 91° East 468 539 39,000  Level FlightAware ADS-B
Mon 06:26:50 PM 42.6060 -91.6320 91° East 470 541 39,000  Level FlightAware ADS-B
Mon 06:27:35 PM 42.6050 -91.5000 91° East 470 541 39,000  Level FlightAware ADS-B
Mon 06:28:16 PM 42.6030 -91.3800 91° East 469 540 39,000  Level FlightAware ADS-B
Mon 06:28:55 PM 42.6010 -91.2650 91° East 468 539 39,000  Level FlightAware ADS-B
Mon 06:29:34 PM 42.5990 -91.1550 91° East 468 539 39,000  Level FlightAware ADS-B
Mon 06:30:19 PM 42.5970 -91.0190 91° East 467 537 39,000  Level FlightAware ADS-B
Mon 06:30:50 PM 42.5950 -90.9310 92° East 466 536 39,000  Level FlightAware ADS-B
Mon 06:31:35 PM 42.5920 -90.7980 92° East 463 533 39,000  Level FlightAware ADS-B
Mon 06:32:18 PM 42.5900 -90.6780 91° East 461 531 39,000  Level FlightAware ADS-B
Mon 06:32:56 PM 42.5870 -90.5680 92° East 459 528 39,000  Level FlightAware ADS-B
Mon 06:33:40 PM 42.5840 -90.4400 92° East 459 528 39,000  Level FlightAware ADS-B
Mon 06:34:23 PM 42.5810 -90.3150 92° East 459 528 39,000  Level FlightAware ADS-B
Mon 06:35:06 PM 42.5780 -90.1930 92° East 460 529 39,000  Level FlightAware ADS-B
Mon 06:35:46 PM 42.5750 -90.0760 92° East 460 529 39,000  Level FlightAware ADS-B
Mon 06:36:26 PM 42.5720 -89.9640 92° East 454 522 39,000  Level FlightAware ADS-B
Mon 06:37:09 PM 42.5680 -89.8410 92° East 453 521 39,000  Level FlightAware ADS-B
Mon 06:37:52 PM 42.5650 -89.7200 92° East 457 526 39,000  Level FlightAware ADS-B
Mon 06:38:35 PM 42.5610 -89.5940 92° East 459 528 39,000  Level FlightAware ADS-B
Mon 06:39:16 PM 42.5570 -89.4780 93° East 459 528 39,000  Level FlightAware ADS-B
Mon 06:39:57 PM 42.5530 -89.3600 93° East 458 527 39,000  Level FlightAware ADS-B
Mon 06:40:42 PM 42.5490 -89.2340 92° East 458 527 39,000  Level FlightAware ADS-B
Mon 06:41:24 PM 42.5450 -89.1120 93° East 457 526 39,000  Level FlightAware ADS-B
Mon 06:42:03 PM 42.5410 -88.9990 93° East 457 526 39,000  Level FlightAware ADS-B
Mon 06:42:41 PM 42.5370 -88.8910 93° East 458 527 39,000  Level FlightAware ADS-B
Mon 06:43:20 PM 42.5330 -88.7800 93° East 458 527 39,000  Level FlightAware ADS-B
Mon 06:44:03 PM 42.5280 -88.6560 93° East 457 526 39,000  Level FlightAware ADS-B
Mon 06:44:42 PM 42.5240 -88.5500 93° East 457 526 39,000  Level FlightAware ADS-B
Mon 06:45:17 PM 42.5190 -88.4460 94° East 457 526 39,000  Level FlightAware ADS-B
Mon 06:46:04 PM 42.5140 -88.3120 93° East 457 526 39,000  Level FlightAware ADS-B
Mon 06:46:39 PM 42.5090 -88.2100 94° East 456 525 39,000  Level FlightAware ADS-B
Mon 06:47:26 PM 42.5030 -88.0780 93° East 456 525 39,000  Level FlightAware ADS-B
Mon 06:48:07 PM 42.5000 -87.9600 92° East 458 527 39,000  Level FlightAware ADS-B
Mon 06:48:51 PM 42.5000 -87.8360 90° East 459 528 39,000  Level FlightAware ADS-B
Mon 06:49:28 PM 42.5000 -87.7300 90° East 459 528 39,000  Level FlightAware ADS-B
Mon 06:50:07 PM 42.4990 -87.6170 91° East 460 529 39,000  Level FlightAware ADS-B
Mon 06:50:46 PM 42.4990 -87.5060 90° East 460 529 39,000  Level FlightAware ADS-B
Mon 06:51:26 PM 42.4990 -87.3920 90° East 465 535 39,000  Level FlightAware ADS-B
Mon 06:52:02 PM 42.4980 -87.2830 91° East 472 543 39,000  Level FlightAware ADS-B
Mon 06:52:44 PM 42.4970 -87.1630 91° East 477 549 39,000  Level FlightAware ADS-B
Mon 06:53:28 PM 42.4970 -87.0510 90° East 477 549 39,000  Level FlightAware ADS-B
Mon 06:54:07 PM 42.4950 -86.9120 91° East 476 548 39,000  Level FlightAware ADS-B
Mon 06:54:46 PM 42.4940 -86.8020 91° East 475 547 39,000  Level FlightAware ADS-B
Mon 06:55:25 PM 42.4930 -86.6850 91° East 475 547 39,000  Level FlightAware ADS-B
Mon 06:56:09 PM 42.4910 -86.5510 91° East 475 547 39,000  Level FlightAware ADS-B
Mon 06:56:54 PM 42.4900 -86.4160 91° East 474 545 39,000  Level FlightAware ADS-B
Mon 06:57:35 PM 42.4880 -86.2960 91° East 473 544 39,000  Level FlightAware ADS-B
Mon 06:58:17 PM 42.4860 -86.1720 91° East 472 543 39,000  Level FlightAware ADS-B
Mon 06:58:54 PM 42.4840 -86.0620 91° East 470 541 39,000  Level FlightAware ADS-B
Mon 06:59:33 PM 42.4820 -85.9500 91° East 469 540 39,000  Level FlightAware ADS-B
Mon 07:00:14 PM 42.4800 -85.8270 91° East 467 537 39,000  Level FlightAware ADS-B
Mon 07:00:59 PM 42.4780 -85.6980 91° East 466 536 39,000  Level FlightAware ADS-B
Mon 07:01:40 PM 42.4750 -85.5770 92° East 465 535 39,000  Level FlightAware ADS-B
Mon 07:02:20 PM 42.4730 -85.4630 91° East 465 535 39,000  Level FlightAware ADS-B
Mon 07:03:04 PM 42.4700 -85.3340 92° East 466 536 39,000  Level FlightAware ADS-B
Mon 07:03:40 PM 42.4670 -85.2290 92° East 467 537 39,000  Level FlightAware ADS-B
Mon 07:04:22 PM 42.4640 -85.1080 92° East 469 540 39,000  Level FlightAware ADS-B
Mon 07:05:03 PM 42.4610 -84.9870 92° East 471 542 39,000  Level FlightAware ADS-B
Mon 07:05:41 PM 42.4580 -84.8760 92° East 472 543 39,000  Level FlightAware ADS-B
Mon 07:06:18 PM 42.4550 -84.7690 92° East 474 545 39,000  Level FlightAware ADS-B
Mon 07:06:55 PM 42.4510 -84.6660 93° East 473 544 39,000  Level FlightAware ADS-B
Mon 07:07:42 PM 42.4420 -84.5270 95° East 474 545 39,000  Level FlightAware ADS-B
Mon 07:08:27 PM 42.4340 -84.3890 94° East 475 547 39,000  Level FlightAware ADS-B
Mon 07:09:06 PM 42.4270 -84.2720 95° East 475 547 39,000  Level FlightAware ADS-B
Mon 07:09:49 PM 42.4200 -84.1480 94° East 476 548 39,000  Level FlightAware ADS-B
Mon 07:10:31 PM 42.4130 -84.0240 94° East 476 548 39,000  Level FlightAware ADS-B
Mon 07:11:07 PM 42.4060 -83.9160 95° East 476 548 39,000  Level FlightAware ADS-B
Mon 07:11:48 PM 42.3980 -83.7930 95° East 476 548 39,000  Level FlightAware ADS-B
Mon 07:12:32 PM 42.3900 -83.6630 95° East 477 549 39,000  Level FlightAware ADS-B
Mon 07:13:04 PM 42.3840 -83.5670 95° East 478 550 39,000  Level FlightAware ADS-B
Mon 07:13:48 PM 42.3750 -83.4350 95° East 479 551 39,000  Level FlightAware ADS-B
Mon 07:14:30 PM 42.3670 -83.3090 95° East 481 554 39,000  Level FlightAware ADS-B
Mon 07:15:12 PM 42.3580 -83.1860 96° East 482 555 39,000  Level FlightAware ADS-B
Mon 07:15:54 PM 42.3500 -83.0630 95° East 484 557 39,000  Level FlightAware ADS-B
Mon 07:16:34 PM 42.3410 -82.9370 95° East 487 560 39,000  Level FlightAware ADS-B
Mon 07:17:19 PM 42.3310 -82.8040 96° East 488 562 39,000  Level FlightAware ADS-B
Mon 07:17:54 PM 42.3240 -82.6970 95° East 490 564 39,000  Level FlightAware ADS-B
Mon 07:18:34 PM 42.3150 -82.5740 96° East 492 566 39,000  Level FlightAware ADS-B
Mon 07:19:18 PM 42.3050 -82.4400 96° East 495 570 39,000  Level FlightAware ADS-B
Mon 07:19:54 PM 42.2960 -82.3290 96° East 496 571 39,000  Level FlightAware ADS-B
Mon 07:20:34 PM 42.2870 -82.2050 96° East 496 571 39,000  Level FlightAware ADS-B
Mon 07:21:16 PM 42.2770 -82.0810 96° East 498 573 39,000  Level FlightAware ADS-B
Mon 07:21:55 PM 42.2680 -81.9640 96° East 499 574 39,000  Level FlightAware ADS-B
Mon 07:22:35 PM 42.2580 -81.8360 96° East 496 571 39,000  Level FlightAware ADS-B
Mon 07:23:23 PM 42.2450 -81.6830 96° East 488 562 39,000  Level FlightAware ADS-B
Mon 07:24:03 PM 42.2350 -81.5630 96° East 486 559 39,000  Level FlightAware ADS-B
Mon 07:24:43 PM 42.2250 -81.4430 96° East 488 562 39,000  Level FlightAware ADS-B
Mon 07:25:22 PM 42.2150 -81.3250 96° East 488 562 39,000  Level FlightAware ADS-B
Mon 07:26:03 PM 42.2050 -81.2010 96° East 488 562 39,000  Level FlightAware ADS-B
Mon 07:26:43 PM 42.1940 -81.0810 97° East 489 563 39,000  Level FlightAware ADS-B
Mon 07:27:18 PM 42.1850 -80.9760 97° East 488 562 39,000  Level FlightAware ADS-B
Mon 07:28:03 PM 42.1730 -80.8390 97° East 487 560 39,000  Level FlightAware ADS-B
Mon 07:28:42 PM 42.1630 -80.7290 97° East 487 560 39,000  Level FlightAware ADS-B
Mon 07:29:25 PM 42.1520 -80.6080 97° East 487 560 39,000  Level FlightAware ADS-B
Mon 07:30:05 PM 42.1400 -80.4760 97° East 486 559 39,000  Level FlightAware ADS-B
Mon 07:30:42 PM 42.1310 -80.3800 97° East 486 559 39,000  Level FlightAware ADS-B
Mon 07:31:30 PM 42.1160 -80.2230 97° East 486 559 39,000  Level FlightAware ADS-B
Mon 07:32:13 PM 42.1040 -80.1010 98° East 487 560 39,000  Level FlightAware ADS-B
Mon 07:32:55 PM 42.0920 -79.9760 97° East 487 560 39,000  Level FlightAware ADS-B
Mon 07:33:35 PM 42.0800 -79.8500 97° East 488 562 39,000  Level FlightAware ADS-B
Mon 07:34:19 PM 42.0660 -79.7150 98° East 489 563 39,000  Level FlightAware ADS-B
Mon 07:35:01 PM 42.0530 -79.5830 98° East 490 564 39,000  Level FlightAware ADS-B
Mon 07:35:37 PM 42.0420 -79.4760 98° East 490 564 39,000  Level FlightAware ADS-B
Mon 07:36:27 PM 42.0270 -79.3240 98° East 491 565 39,000  Level FlightAware ADS-B
Mon 07:37:07 PM 42.0150 -79.2070 98° East 491 565 39,000  Level FlightAware ADS-B
Mon 07:37:47 PM 42.0010 -79.0820 99° East 490 564 39,000  Level FlightAware ADS-B
Mon 07:38:33 PM 41.9870 -78.9450 98° East 489 563 39,000  Level FlightAware ADS-B
Mon 07:39:09 PM 41.9760 -78.8390 98° East 488 562 39,000  Level FlightAware ADS-B
Mon 07:39:49 PM 41.9620 -78.7170 99° East 486 559 39,000  Level FlightAware ADS-B
Mon 07:40:33 PM 41.9480 -78.5880 98° East 484 557 39,000  Level FlightAware ADS-B
Mon 07:41:05 PM 41.9380 -78.4920 98° East 483 556 39,000  Level FlightAware ADS-B
Mon 07:41:49 PM 41.9230 -78.3640 99° East 482 555 39,000  Level FlightAware ADS-B
Mon 07:42:28 PM 41.9100 -78.2460 98° East 482 555 39,000  Level FlightAware ADS-B
Mon 07:43:04 PM 41.8980 -78.1390 99° East 482 555 39,000  Level FlightAware ADS-B
Mon 07:43:48 PM 41.8840 -78.0140 99° East 482 555 39,000  Level FlightAware ADS-B
Mon 07:44:28 PM 41.8690 -77.8920 99° East 480 552 39,000  Level FlightAware ADS-B
Mon 07:45:08 PM 41.8460 -77.7780 105° East 470 541 39,000  Level FlightAware ADS-B
Mon 07:45:52 PM 41.8150 -77.6590 109° East 470 541 39,000  Level FlightAware ADS-B
Mon 07:46:36 PM 41.7830 -77.5390 110° East 471 542 39,000  Level FlightAware ADS-B
Mon 07:47:18 PM 41.7510 -77.4210 110° East 473 544 39,000  Level FlightAware ADS-B
Mon 07:47:54 PM 41.7250 -77.3230 110° East 473 544 39,000  Level FlightAware ADS-B
Mon 07:48:34 PM 41.6950 -77.2140 110° East 476 548 39,000  Level FlightAware ADS-B
Mon 07:49:16 PM 41.6640 -77.0970 109° East 476 548 39,000  Level FlightAware ADS-B
Mon 07:49:56 PM 41.6340 -76.9860 110° East 477 549 39,000  Level FlightAware ADS-B
Mon 07:50:30 PM 41.6087 -76.8930 110° East 475 547 39,000  Level FlightAware ADS-B
Mon 07:51:00 PM 41.5857 -76.8087 110° East 477 549 39,000  Level FlightAware ADS-B
Mon 07:51:31 PM 41.5624 -76.7236 110° East 476 548 39,000  Level FlightAware ADS-B
Mon 07:52:02 PM 41.5394 -76.6400 110° East 475 547 39,000  Level FlightAware ADS-B
Mon 07:52:33 PM 41.5154 -76.5528 110° East 474 545 39,000 -194 Level FlightAware ADS-B
Mon 07:53:04 PM 41.4923 -76.4693 110° East 474 545 38,800 -387 Descending FlightAware ADS-B
Mon 07:53:35 PM 41.4688 -76.3849 110° East 472 543 38,600 -1,048 Descending FlightAware ADS-B
Mon 07:54:07 PM 41.4444 -76.2969 110° East 470 541 37,700 -2,095 Descending FlightAware ADS-B
Mon 07:54:38 PM 41.4214 -76.2147 110° East 473 544 36,400 -3,097 Descending FlightAware ADS-B
Mon 07:55:09 PM 41.3970 -76.1282 111° Southeast 475 547 34,500 -4,062 Descending FlightAware ADS-B
Mon 07:55:43 PM 41.3707 -76.0348 111° Southeast 477 549 32,000 -3,877 Descending FlightAware ADS-B
Mon 07:56:14 PM 41.3473 -75.9512 110° East 466 536 30,300 -2,710 Descending FlightAware ADS-B
Mon 07:56:45 PM 41.3247 -75.8705 110° East 458 527 29,200 -2,066 Descending FlightAware ADS-B
Mon 07:57:15 PM 41.3023 -75.7919 111° Southeast 451 519 28,200 -2,100 Descending FlightAware ADS-B
Mon 07:57:45 PM 41.2794 -75.7128 111° Southeast 445 512 27,100 -2,118 Descending FlightAware ADS-B
Mon 07:58:06 PM 41.2636 -75.6619 112° Southeast 441 507 26,400 -2,077 Descending FlightAware ADS-B
Mon 07:58:37 PM 41.2384 -75.5852 114° Southeast 437 503 25,300 -2,129 Descending FlightAware ADS-B
Mon 07:59:08 PM 41.2132 -75.5102 114° Southeast 433 498 24,200 -2,066 Descending FlightAware ADS-B
Mon 07:59:38 PM 41.1886 -75.4370 114° Southeast 429 494 23,200 -1,180 Descending FlightAware ADS-B
Mon 08:00:09 PM 41.1640 -75.3640 114° Southeast 428 493 23,000 -197 Descending FlightAware ADS-B
Mon 08:00:39 PM 41.1394 -75.2912 114° Southeast 432 497 23,000  Level FlightAware ADS-B
Mon 08:01:10 PM 41.1141 -75.2161 114° Southeast 434 499 23,000  Level FlightAware ADS-B
Mon 08:01:40 PM 41.0894 -75.1432 114° Southeast 433 498 23,000  Level FlightAware ADS-B
Mon 08:02:11 PM 41.0641 -75.0689 114° Southeast 433 498 23,000  Level FlightAware ADS-B
Mon 08:02:42 PM 41.0384 -74.9932 114° Southeast 432 497 23,000  Level FlightAware ADS-B
Mon 08:03:15 PM 41.0119 -74.9152 114° Southeast 432 497 23,000  Level FlightAware ADS-B
Mon 08:03:30 PM 41.0012 -74.8769 110° East 436 502 23,000  Level FlightAware ADS-B
Mon 08:03:42 PM 40.9948 -74.8465 106° East 439 505 23,000  Level FlightAware ADS-B
Mon 08:03:49 PM 40.9916 -74.8263 102° East 441 507 23,000 -938 Level FlightAware ADS-B
Mon 08:04:14 PM 40.9842 -74.7618 99° East 442 509 22,500 -1,263 Descending FlightAware ADS-B
Mon 08:04:27 PM 40.9805 -74.7275 98° East 442 509 22,200 -1,800 Descending FlightAware ADS-B
Mon 08:04:44 PM 40.9755 -74.6813 98° East 434 499 21,600 -1,953 Descending FlightAware ADS-B
Mon 08:05:10 PM 40.9683 -74.6144 98° East 430 495 20,800 -1,935 Descending FlightAware ADS-B
Mon 08:05:15 PM 40.9668 -74.6004 98° East 426 490 20,600 -1,000 Descending FlightAware ADS-B
Mon 08:05:46 PM 40.9581 -74.5216 98° East 426 490 20,200 -590 Descending FlightAware ADS-B
Mon 08:06:16 PM 40.9495 -74.4432 98° East 424 488 20,000 -492 Descending FlightAware ADS-B
Mon 08:06:47 PM 40.9409 -74.3656 98° East 409 471 19,700 -787 Descending FlightAware ADS-B
Mon 08:07:17 PM 40.9327 -74.2924 98° East 393 452 19,200 -913 Descending FlightAware ADS-B
Mon 08:07:33 PM 40.9285 -74.2556 99° East 399 459 19,000 -387 Descending FlightAware ADS-B
Mon 08:07:48 PM 40.9248 -74.2220 98° East 369 425 19,000  Level FlightAware ADS-B
Mon 08:08:04 PM 40.9204 -74.1868 99° East 361 415 19,000  Level FlightAware ADS-B
Mon 08:08:10 PM 40.9179 -74.1745 105° East 357 411 19,000  Level FlightAware ADS-B
Mon 08:08:13 PM 40.9163 -74.1684 109° East 354 407 19,000  Level FlightAware ADS-B
Mon 08:08:20 PM 40.9112 -74.1543 116° Southeast 350 403 19,000  Level FlightAware ADS-B
Mon 08:08:22 PM 40.9099 -74.1514 121° Southeast 349 402 19,000  Level FlightAware ADS-B
Mon 08:08:25 PM 40.9071 -74.1457 123° Southeast 347 399 19,000  Level FlightAware ADS-B
Mon 08:08:26 PM 40.9068 -74.1450 120° Southeast 346 398 19,000  Level FlightAware ADS-B
Mon 08:08:32 PM 40.9003 -74.1344 129° Southeast 343 395 19,000  Level FlightAware ADS-B
Mon 08:08:33 PM 40.8987 -74.1322 134° Southeast 343 395 19,000  Level FlightAware ADS-B
Mon 08:08:37 PM 40.8948 -74.1272 136° Southeast 340 391 19,000  Level FlightAware ADS-B
Mon 08:08:38 PM 40.8938 -74.1259 135° Southeast 340 391 19,000  Level FlightAware ADS-B
Mon 08:08:47 PM 40.8824 -74.1151 144° Southeast 336 387 19,000  Level FlightAware ADS-B
Mon 08:08:53 PM 40.8745 -74.1096 152° Southeast 334 384 19,000  Level FlightAware ADS-B
Mon 08:08:55 PM 40.8709 -74.1076 157° South 332 382 19,000  Level FlightAware ADS-B
Mon 08:09:02 PM 40.8608 -74.1025 159° South 330 380 19,000  Level FlightAware ADS-B
Mon 08:09:03 PM 40.8599 -74.1021 161° South 330 380 19,000  Level FlightAware ADS-B
Mon 08:09:33 PM 40.8160 -74.0834 162° South 329 379 19,000 -98 Level FlightAware ADS-B
Mon 08:10:04 PM 40.7711 -74.0647 162° South 327 376 18,900 -182 Descending FlightAware ADS-B
Mon 08:10:06 PM 40.7688 -74.0638 163° South 328 377 18,900 -1,125 Level FlightAware ADS-B
Mon 08:10:36 PM 40.7260 -74.0457 162° South 322 371 18,300 -1,161 Descending FlightAware ADS-B
Mon 08:10:37 PM 40.7243 -74.0450 163° South 322 371 18,300 -1,455 Level FlightAware ADS-B
Mon 08:11:09 PM 40.6795 -74.0259 162° South 318 366 17,500 -1,500 Descending FlightAware ADS-B
Mon 08:11:37 PM 40.6398 -74.0090 162° South 318 366 16,800 -1,455 Descending FlightAware ADS-B
Mon 08:11:42 PM 40.6336 -74.0064 162° South 313 360 16,700 -1,429 Descending FlightAware ADS-B
Mon 08:12:19 PM 40.5827 -73.9854 163° South 307 353 15,800 -1,500 Descending FlightAware ADS-B
Mon 08:12:54 PM 40.5355 -73.9656 162° South 303 349 14,900 -1,477 Descending FlightAware ADS-B
Mon 08:13:24 PM 40.4954 -73.9496 163° South 297 342 14,200 -1,355 Descending FlightAware ADS-B
Mon 08:13:56 PM 40.4544 -73.9336 163° South 294 338 13,500 -1,452 Descending FlightAware ADS-B
Mon 08:14:26 PM 40.4156 -73.9184 163° South 285 328 12,700 -2,100 Descending FlightAware ADS-B
Mon 08:14:56 PM 40.3780 -73.9035 163° South 280 322 11,400 -2,429 Descending FlightAware ADS-B
Mon 08:15:08 PM 40.3635 -73.8966 160° South 280 322 11,000 -2,308 Descending FlightAware ADS-B
Mon 08:15:22 PM 40.3486 -73.8824 144° Southeast 288 331 10,400 -2,286 Descending FlightAware ADS-B
Mon 08:15:29 PM 40.3427 -73.8719 126° Southeast 293 337 10,200 -2,250 Descending FlightAware ADS-B
Mon 08:15:38 PM 40.3376 -73.8583 116° Southeast 296 341 9,800 -2,571 Descending FlightAware ADS-B
Mon 08:15:57 PM 40.3284 -73.8263 111° Southeast 297 342 9,000 -2,500 Descending FlightAware ADS-B
Mon 08:16:14 PM 40.3206 -73.7973 109° East 299 344 8,300 -2,432 Descending FlightAware ADS-B
Mon 08:16:34 PM 40.3115 -73.7628 109° East 299 344 7,500 -2,348 Descending FlightAware ADS-B
Mon 08:16:37 PM 40.3105 -73.7573 103° East 302 348 7,400 -2,400 Descending FlightAware ADS-B
Mon 08:16:44 PM 40.3095 -73.7444 96° East 306 352 7,100 -1,929 Descending FlightAware ADS-B
Mon 08:17:05 PM 40.3176 -73.7083 74° East 311 358 6,500 -1,920 Descending FlightAware ADS-B
Mon 08:17:09 PM 40.3211 -73.7011 57° Northeast 311 358 6,300 -2,222 Descending FlightAware ADS-B
Mon 08:17:32 PM 40.3400 -73.6657 55° Northeast 311 358 5,500 -1,969 Descending FlightAware ADS-B
Mon 08:18:13 PM 40.3729 -73.6053 54° Northeast 307 353 4,200 -1,021 Descending FlightAware ADS-B
Mon 08:19:06 PM 40.4310 -73.5510 35° Northeast 300 345 3,900 -222 Descending FlightAware ADS-B
Mon 08:19:34 PM 40.4670 -73.5260 28° Northeast 299 344 3,900  Level FlightAware ADS-B
Mon 08:20:02 PM 40.5010 -73.5040 26° Northeast 298 343 3,900  Level FlightAware ADS-B
Mon 08:20:32 PM 40.5390 -73.4790 27° Northeast 298 343 3,900  Level FlightAware ADS-B
Mon 08:20:40 PM 40.5490 -73.4760 13° North 296 341 3,900  Level FlightAware ADS-B
Mon 08:20:51 PM 40.5650 -73.4770 357° North 291 335 3,900  Level FlightAware ADS-B
Mon 08:21:20 PM 40.6030 -73.4850 351° North 294 338 3,900 -105 Level FlightAware ADS-B
Mon 08:21:48 PM 40.6410 -73.4930 351° North 289 333 3,800 -778 Descending FlightAware ADS-B
Mon 08:22:14 PM 40.6740 -73.5000 351° North 286 329 3,200 -1,038 Descending FlightAware ADS-B
Mon 08:22:40 PM 40.7070 -73.5080 350° North 286 329 2,900 -333 Descending FlightAware ADS-B
Mon 08:23:08 PM 40.7430 -73.5200 346° North 277 319 2,900  Level FlightAware ADS-B
Mon 08:23:18 PM 40.7530 -73.5310 320° Northwest 260 299 2,900 -150 Level FlightAware ADS-B
Mon 08:23:48 PM 40.7770 -73.5640 314° West 232 267 2,800 -429 Descending FlightAware ADS-B
Mon 08:24:14 PM 40.7950 -73.5900 312° West 223 257 2,500 -750 Descending FlightAware ADS-B
Mon 08:24:28 PM 40.8020 -73.6050 302° West 213 245 2,300 -900 Descending FlightAware ADS-B
Mon 08:24:54 PM 40.7970 -73.6330 257° West 186 214 1,900 -571 Descending FlightAware ADS-B
Mon 08:25:10 PM 40.7870 -73.6420 214° Southwest 162 186 1,900  Level FlightAware ADS-B
Mon 08:25:38 PM 40.7700 -73.6580 215° Southwest 158 182 1,900  Level FlightAware ADS-B
Mon 08:26:06 PM 40.7520 -73.6710 209° Southwest 160 184 1,900  Level FlightAware ADS-B
Mon 08:26:22 PM 40.7420 -73.6790 211° Southwest 158 182 1,900 -261 Level FlightAware ADS-B
Mon 08:26:52 PM 40.7240 -73.6930 211° Southwest 149 171 1,700 -577 Descending FlightAware ADS-B
Mon 08:27:14 PM 40.7110 -73.7030 210° Southwest 128 147 1,400 -750 Descending FlightAware ADS-B
Mon 08:27:32 PM 40.7030 -73.7100 214° Southwest 117 135 1,200 -652 Descending FlightAware ADS-B
Mon 08:28:00 PM 40.6900 -73.7200 210° Southwest 114 131 900 -643 Descending FlightAware ADS-B
Mon 08:28:28 PM 40.6760 -73.7300 208° Southwest 115 132 600 -517 Descending FlightAware ADS-B
Mon 08:28:58 PM 40.6630 -73.7410 213° Southwest 118 136 400 -517 Descending FlightAware ADS-B
Mon 08:29:26 PM 40.6490 -73.7520 211° Southwest 122 140 100 -643 Descending FlightAware ADS-B
Mon 08:29:54 PM 40.6360 -73.7620 210° Southwest 84 97 -214 Descending FlightAware ADS-B
Mon 08:30:22 PM 40.6300 -73.7670 212° Southwest 31 36  Level FlightAware ADS-B
Mon 08:31:03 PM 40.6300 -73.7720 270° West 23 26  Level FlightAware ADS-B
Mon 08:31:31 PM 40.6320 -73.7750 311° West 26 30  Level FlightAware ADS-B

Login

Don't have an account? Register now (free) for customized features, flight alerts, and more!